Aérodrome :
LOGIN :

S'inscrire | Disclaimer

   EN    FR    IT 

 










Légende :    VFR   VFR Marginal   IFR   IFR Intensif   IFR Très Intensif
Visi : 
Plafond : 
>= 8 km
>= 3000ft
5 à 8 km
1000 à 3000 ft
1500m à 5 km
500 à 1000 ft
800 à 1500m
200 à 500 ft
< 800m
< 200 ft
Symboles :   Orages  Brouillard  Fortes neiges  Fortes précipitations  Vent > 20 kt
SIGMETs :   Divers  Orages  Givrage  Turbulence  Onde Orograph.  Cendres Volcan.






- Altitude de l'aérodrome : 39 ft
- Code IATA : TRS


LIPQ - Friuli Venezia Giulia Apt. Trieste

DERNIER METAR :
  • 011420Z AUTO 01008KT 340V040 9999 SCT085/// BKN140/// 25/18 Q1005

METARs EXPIRÉS :
  • 011350Z AUTO 33008KT 300V010 9999 VCTS FEW023/// SCT110/// BKN150/// 24/16 Q1005
  • 011320Z AUTO 28014KT 250V320 9999 SCT030/// BKN100/// BKN120/// 26/15 Q1004
  • 011250Z AUTO 23015KT 9999 BKN100/// 28/21 Q1004
  • 011220Z AUTO 21015KT 9999 FEW031/// BKN120/// 28/22 Q1003
  • 011150Z AUTO 22011KT 9999 FEW022/// SCT130/// 28/23 Q1004

TAF TAF LIPQ
Valide du 01 à 12h jusqu'au 02 à 12h UTC


011100Z 0112/0212 19010KT 9999 SCT030
TEMPO 0112/0202 4000 TSRA
BECMG 0116/0118 VRB05KT
TEMPO 0208/0212 TSRA



MET'MAP, la Météo Aéronautique d'un coup d'oeil ! - Copyright ORBIFLY Décembre 2007 - Disclaimer

ORBIFLY MET'MAP TEAM :

Programmation & Développement : Alexandra Zaïnal
Sur une idée originale de : Baudouin d'Aumeries
Assistance à la programmation : Marc-Olivier Méhu
Soutien technique & logistique : Manuel Goepfert

Contact : metmap@orbifly.com




SOURCES & CREDITS :

   NOAA